Terminal Aerodrome Forecast
Issued by NWS

Home | Current Version | Previous Version | Text Only | Print | Product List | Glossary On
Versions: 1 2 3 4 5 6 7 8 9 10 11 12 13 14
200
FTUS45 KABQ 282343
TAFAEG
TAF
KAEG 282343Z 2900/2924 33011KT P6SM VCSH SCT020 BKN050
     FM290500 33015G23KT 5SM RA BR BKN019 OVC030
     FM290900 32014G23KT 6SM BR OVC025
     FM291400 32013G23KT P6SM SCT040 BKN100=

USA.gov is the U.S. government's official web portal to all federal, state and local government web resources and services.